Ramilandia, Brazil
Current Conditions -  °F | °C
As of 11:00 PM on Monday 24 Nov 2014 (Local Time) from SBCA Reporting Station
Clear Clear  
Wind Chill: 75°   Ceiling: Unl
Heat Index: 75°   Visibility: 6mi
Dew Point: 68°   Wind: 20mph
Humidity: 78%   Direction: 50°NE
Pressure: 29.88"   Gusts: NA
Location:  25.12°S, 54.03°W
Report Text: SBCA 250100Z 05017KT CAVOK 24/20 Q1012
Loading
Personal Weather Stations






























Interactive Weather Map New forecast layout! Learn more

10-Day Weather Forecast

Advertisements
Track Severe Weather on mobile